Time;durP1;ratioP1;P1;durP2;ratioP2;P2;SDS_P1;SDS_P2;PMS_P1;PMS_P2;Temp;Humidity;BMP_temperature;BMP_pressure;BME280_temperature;BME280_humidity;BME280_pressure;Samples;Min_cycle;Max_cycle;Signal;HPM_P1;HPM_P2
2023/07/19 00:01:46;;;;;;;3.92;1.73;;;22.30;99.90;;;;;;5021314;28;20040;-68
2023/07/19 00:04:12;;;;;;;5.75;1.90;;;22.20;99.90;;;;;;5032821;28;20473;-69
2023/07/19 00:07:38;;;;;;;4.40;1.67;;;22.10;99.90;;;;;;5006503;28;20462;-69
2023/07/19 00:10:05;;;;;;;3.95;1.92;;;22.00;99.90;;;;;;5025378;28;20398;-69
2023/07/19 00:12:33;;;;;;;4.53;1.88;;;21.90;99.90;;;;;;5024902;28;20036;-67
2023/07/19 00:14:58;;;;;;;7.15;2.17;;;21.90;99.90;;;;;;5028578;28;20017;-67
2023/07/19 00:17:25;;;;;;;3.40;1.70;;;21.90;99.90;;;;;;5018219;28;20032;-67
2023/07/19 00:19:51;;;;;;;4.93;2.13;;;21.90;99.90;;;;;;5031921;28;20026;-67
2023/07/19 00:22:16;;;;;;;3.55;2.10;;;21.90;99.90;;;;;;5016173;28;20147;-67
2023/07/19 00:24:42;;;;;;;5.90;2.05;;;21.90;99.90;;;;;;5032584;28;20029;-67
2023/07/19 00:27:08;;;;;;;2.40;1.30;;;22.00;99.90;;;;;;5038990;28;20489;-67
2023/07/19 00:29:33;;;;;;;5.60;2.08;;;22.00;99.90;;;;;;5032436;28;20033;-67
2023/07/19 00:31:59;;;;;;;4.72;2.55;;;22.00;99.90;;;;;;5015323;28;20042;-67
2023/07/19 00:34:25;;;;;;;3.88;1.90;;;22.00;99.90;;;;;;5032409;28;20112;-67
2023/07/19 00:36:51;;;;;;;3.47;1.90;;;21.80;99.90;;;;;;5015133;28;20055;-67
2023/07/19 00:39:16;;;;;;;5.85;2.05;;;21.70;99.90;;;;;;5014692;28;20389;-68
2023/07/19 00:41:42;;;;;;;7.57;2.15;;;21.80;99.90;;;;;;5013665;28;20374;-68
2023/07/19 00:44:08;;;;;;;4.47;2.33;;;21.80;99.90;;;;;;5031808;28;20026;-68
2023/07/19 00:50:15;;;;;;;5.60;2.78;;;21.40;99.90;;;;;;5024558;28;20461;-67
2023/07/19 00:52:42;;;;;;;4.40;1.85;;;21.40;99.90;;;;;;5009058;28;20029;-68
2023/07/19 00:55:09;;;;;;;7.88;3.47;;;21.50;99.90;;;;;;5009606;28;20096;-68
2023/07/19 00:57:35;;;;;;;4.45;1.58;;;21.40;99.90;;;;;;5024874;28;20030;-67
2023/07/19 01:00:01;;;;;;;5.95;2.42;;;21.50;99.90;;;;;;5028832;28;20040;-68
2023/07/19 01:02:27;;;;;;;5.03;2.10;;;21.30;99.90;;;;;;5017553;28;20029;-67
2023/07/19 01:04:53;;;;;;;3.15;2.00;;;21.20;99.90;;;;;;5017594;28;20037;-67
2023/07/19 01:07:18;;;;;;;6.38;2.05;;;21.30;99.90;;;;;;5003926;28;20061;-68
2023/07/19 01:09:45;;;;;;;13.30;2.60;;;21.20;99.90;;;;;;5019916;28;20358;-69
2023/07/19 01:12:10;;;;;;;4.50;2.17;;;21.00;99.90;;;;;;4994456;28;20130;-67
2023/07/19 01:14:37;;;;;;;4.55;2.28;;;20.90;99.90;;;;;;5020847;28;20419;-67
2023/07/19 01:17:03;;;;;;;5.00;2.25;;;20.90;99.90;;;;;;5019199;28;20040;-68
2023/07/19 01:19:28;;;;;;;5.45;2.58;;;20.90;99.90;;;;;;5013738;28;20330;-68
2023/07/19 01:21:56;;;;;;;5.90;2.30;;;20.80;99.90;;;;;;5014166;28;20034;-70
2023/07/19 01:24:21;;;;;;;4.93;1.98;;;20.90;99.90;;;;;;5019353;28;20018;-68
2023/07/19 01:26:47;;;;;;;7.22;2.60;;;20.90;99.90;;;;;;5018036;28;20055;-68
2023/07/19 01:29:13;;;;;;;6.00;1.92;;;21.00;99.90;;;;;;5031412;28;20033;-68
2023/07/19 01:31:39;;;;;;;4.82;2.03;;;21.10;99.90;;;;;;5022282;28;20438;-68
2023/07/19 01:34:05;;;;;;;6.13;2.17;;;21.30;99.90;;;;;;5030681;28;20044;-68
2023/07/19 01:36:30;;;;;;;8.00;2.00;;;21.10;99.90;;;;;;5014193;28;20036;-68
2023/07/19 01:38:56;;;;;;;4.03;1.92;;;21.10;99.90;;;;;;5031171;28;20022;-68
2023/07/19 01:41:22;;;;;;;4.95;2.47;;;21.00;99.90;;;;;;5020755;28;20037;-68
2023/07/19 01:43:48;;;;;;;4.25;2.10;;;21.00;99.90;;;;;;5030666;28;20017;-68
2023/07/19 01:46:13;;;;;;;5.28;2.03;;;20.90;99.90;;;;;;5014266;28;20047;-68
2023/07/19 01:48:46;;;;;;;4.10;2.10;;;20.60;99.90;;;;;;5067135;28;20825;-68
2023/07/19 01:51:12;;;;;;;7.68;2.88;;;20.50;99.90;;;;;;5045689;28;20026;-68
2023/07/19 01:53:38;;;;;;;3.33;1.90;;;20.40;99.90;;;;;;5047029;28;20036;-67
2023/07/19 01:56:04;;;;;;;3.72;1.92;;;20.40;99.90;;;;;;5045741;28;20025;-67
2023/07/19 01:58:29;;;;;;;4.75;2.10;;;20.40;99.90;;;;;;5047104;28;20535;-68
2023/07/19 02:00:55;;;;;;;5.88;2.08;;;20.40;99.90;;;;;;5045508;28;20060;-68
2023/07/19 02:03:21;;;;;;;5.05;2.53;;;20.40;99.90;;;;;;5047035;28;20552;-68
2023/07/19 02:05:58;;;;;;;10.95;2.78;;;20.40;99.90;;;;;;5046697;28;20028;-68
2023/07/19 02:08:24;;;;;;;4.55;2.40;;;20.40;99.90;;;;;;5038580;28;20025;-68
2023/07/19 02:10:50;;;;;;;4.80;2.40;;;20.40;99.90;;;;;;5028544;28;20029;-67
2023/07/19 02:13:16;;;;;;;7.22;2.80;;;20.30;99.90;;;;;;5046696;28;20035;-68
2023/07/19 02:15:41;;;;;;;5.85;2.13;;;20.30;99.90;;;;;;5040057;28;20040;-68
2023/07/19 02:18:07;;;;;;;4.70;2.42;;;20.20;99.90;;;;;;5045324;28;20059;-68
2023/07/19 02:20:33;;;;;;;6.75;2.65;;;20.20;99.90;;;;;;5025254;28;20124;-68
2023/07/19 02:22:58;;;;;;;11.68;2.63;;;20.20;99.90;;;;;;5043685;28;20138;-68
2023/07/19 02:25:24;;;;;;;3.92;2.35;;;20.10;99.90;;;;;;5040892;28;20034;-68
2023/07/19 02:27:50;;;;;;;5.97;2.42;;;20.10;99.90;;;;;;5042995;28;20029;-69
2023/07/19 02:30:16;;;;;;;9.13;2.75;;;20.10;99.90;;;;;;5044886;28;20445;-68
2023/07/19 02:32:42;;;;;;;5.53;2.33;;;20.00;99.90;;;;;;5046263;28;20029;-68
2023/07/19 02:35:08;;;;;;;4.95;2.58;;;20.00;99.90;;;;;;5044166;28;20037;-67
2023/07/19 02:37:33;;;;;;;5.35;2.47;;;20.00;99.90;;;;;;5038865;28;20071;-68
2023/07/19 02:39:59;;;;;;;5.88;2.60;;;20.00;99.90;;;;;;5044321;28;20155;-68
2023/07/19 02:42:25;;;;;;;5.28;2.63;;;20.10;99.90;;;;;;5037468;28;20033;-68
2023/07/19 02:44:51;;;;;;;7.30;2.47;;;20.20;99.90;;;;;;5045302;28;20033;-68
2023/07/19 02:47:16;;;;;;;12.30;3.03;;;20.30;99.90;;;;;;5037927;28;20021;-68
2023/07/19 02:49:42;;;;;;;8.95;2.47;;;20.20;99.90;;;;;;5044320;28;20029;-67
2023/07/19 02:52:11;;;;;;;5.85;2.35;;;20.30;99.90;;;;;;5037900;28;20047;-68
2023/07/19 02:54:36;;;;;;;5.55;2.38;;;20.20;99.90;;;;;;5046014;28;20061;-68
2023/07/19 02:57:03;;;;;;;7.03;3.10;;;20.20;99.90;;;;;;5045225;28;20057;-68
2023/07/19 02:59:29;;;;;;;5.00;2.28;;;20.10;99.90;;;;;;5035157;28;20044;-68
2023/07/19 03:01:54;;;;;;;8.60;2.83;;;20.00;99.90;;;;;;5031110;28;20037;-67
2023/07/19 03:04:20;;;;;;;7.22;2.80;;;19.90;99.90;;;;;;5032583;28;20473;-69
2023/07/19 03:06:46;;;;;;;7.38;3.30;;;19.90;99.90;;;;;;5030857;28;20029;-68
2023/07/19 03:09:14;;;;;;;6.13;2.42;;;20.00;99.90;;;;;;5032857;28;20392;-68
2023/07/19 03:11:41;;;;;;;5.28;2.20;;;19.90;99.90;;;;;;5023926;28;20037;-68
2023/07/19 03:14:06;;;;;;;6.20;2.58;;;19.80;99.90;;;;;;5032092;28;20068;-67
2023/07/19 03:16:32;;;;;;;5.45;2.78;;;19.70;99.90;;;;;;5023525;28;20052;-68
2023/07/19 03:18:58;;;;;;;6.03;2.90;;;19.80;99.90;;;;;;5032279;28;20030;-68
2023/07/19 03:21:23;;;;;;;4.80;2.42;;;19.90;99.90;;;;;;5023904;28;20030;-67
2023/07/19 03:23:50;;;;;;;5.53;2.90;;;19.80;99.90;;;;;;5030577;28;20026;-67
2023/07/19 03:26:16;;;;;;;6.85;2.92;;;19.80;99.90;;;;;;5023515;28;20076;-67
2023/07/19 03:28:42;;;;;;;7.22;3.15;;;19.90;99.90;;;;;;5032079;28;20025;-68
2023/07/19 03:31:12;;;;;;;5.22;2.58;;;20.00;99.90;;;;;;5023960;28;20096;-67
2023/07/19 03:33:39;;;;;;;4.53;2.30;;;19.90;99.90;;;;;;5030574;28;20037;-67
2023/07/19 03:36:05;;;;;;;5.05;2.55;;;19.80;99.90;;;;;;5031547;28;20029;-67
2023/07/19 03:38:31;;;;;;;6.20;3.10;;;19.80;99.90;;;;;;5030619;28;20030;-67
2023/07/19 03:41:06;;;;;;;5.35;2.22;;;19.80;99.90;;;;;;5031454;28;20090;-67
2023/07/19 03:43:31;;;;;;;6.35;2.30;;;19.80;99.90;;;;;;5030225;28;20026;-67
2023/07/19 03:45:57;;;;;;;8.95;3.63;;;19.70;99.90;;;;;;5030047;28;20037;-67
2023/07/19 03:48:23;;;;;;;5.13;2.67;;;19.70;99.90;;;;;;5031695;28;20033;-67
2023/07/19 03:51:00;;;;;;;6.88;3.28;;;19.60;99.90;;;;;;5025838;28;20106;-68
2023/07/19 03:53:26;;;;;;;6.55;2.65;;;19.70;99.90;;;;;;5023090;28;20056;-68
2023/07/19 03:55:56;;;;;;;6.43;2.38;;;19.70;99.90;;;;;;5026441;28;20205;-67
2023/07/19 03:58:25;;;;;;;4.43;2.50;;;19.80;99.90;;;;;;5030291;28;20223;-72
2023/07/19 04:00:56;;;;;;;6.05;3.38;;;19.90;99.90;;;;;;5032490;22;20043;-71
2023/07/19 04:03:23;;;;;;;;;;;19.90;99.90;;;;;;4987998;28;20036;-72
2023/07/19 04:05:49;;;;;;;4.40;2.75;;;19.90;99.90;;;;;;4990079;28;19968;-71
2023/07/19 04:08:15;;;;;;;5.85;2.75;;;19.90;99.90;;;;;;4990441;28;20079;-72
2023/07/19 04:10:42;;;;;;;6.20;3.08;;;20.00;99.90;;;;;;4987770;28;20030;-72
2023/07/19 04:13:10;;;;;;;6.47;2.83;;;20.00;99.90;;;;;;4990446;28;20034;-73
2023/07/19 04:15:36;;;;;;;7.20;3.60;;;20.00;99.90;;;;;;4991031;28;20026;-73
2023/07/19 04:18:02;;;;;;;6.00;2.88;;;19.80;99.90;;;;;;4990545;28;20042;-73
2023/07/19 04:20:29;;;;;;;10.02;3.60;;;19.60;99.90;;;;;;4973424;28;20034;-72
2023/07/19 04:22:55;;;;;;;6.78;3.50;;;19.40;99.90;;;;;;4991344;28;20031;-71
2023/07/19 04:25:21;;;;;;;8.77;3.05;;;19.40;99.90;;;;;;4990860;28;20037;-54
2023/07/19 04:27:47;;;;;;;4.35;2.47;;;19.40;99.90;;;;;;4991953;28;20426;-67
2023/07/19 04:30:13;;;;;;;10.93;2.90;;;19.30;99.90;;;;;;4989897;28;20038;-67
2023/07/19 04:32:39;;;;;;;6.13;3.03;;;19.30;99.90;;;;;;4980621;28;20047;-66
2023/07/19 04:35:07;;;;;;;5.55;2.53;;;19.30;99.90;;;;;;5030638;28;20034;-66
2023/07/19 04:37:32;;;;;;;6.40;3.22;;;19.20;99.90;;;;;;5019004;28;20042;-67
2023/07/19 04:39:59;;;;;;;6.05;2.90;;;19.30;99.90;;;;;;5028458;28;20145;-67
2023/07/19 04:42:25;;;;;;;15.68;6.75;;;19.20;99.90;;;;;;5013389;28;20648;-66
2023/07/19 04:44:50;;;;;;;12.00;3.80;;;19.30;99.90;;;;;;5042194;28;20073;-67
2023/07/19 04:47:16;;;;;;;5.88;3.13;;;19.20;99.90;;;;;;5014453;28;20034;-66
2023/07/19 04:49:42;;;;;;;8.90;3.40;;;19.10;99.90;;;;;;5026419;28;20029;-68
2023/07/19 04:52:08;;;;;;;12.18;5.68;;;19.20;99.90;;;;;;5016061;28;20034;-67
2023/07/19 04:54:34;;;;;;;17.10;8.48;;;19.50;99.90;;;;;;5023669;28;20064;-67
2023/07/19 04:57:00;;;;;;;9.45;4.25;;;19.50;99.90;;;;;;5010835;28;20109;-67
2023/07/19 04:59:27;;;;;;;5.15;2.47;;;19.50;99.90;;;;;;5019241;28;20021;-66
2023/07/19 05:01:52;;;;;;;6.35;3.33;;;19.70;99.90;;;;;;5011622;28;20507;-66
2023/07/19 05:04:18;;;;;;;4.68;2.42;;;19.60;99.90;;;;;;4973767;28;20046;-66
2023/07/19 05:06:44;;;;;;;4.97;2.85;;;19.70;99.90;;;;;;5022111;28;20040;-67
2023/07/19 05:09:11;;;;;;;7.03;3.22;;;19.70;99.90;;;;;;5023571;28;20037;-65
2023/07/19 05:11:37;;;;;;;7.78;3.15;;;19.80;99.90;;;;;;5023088;28;20079;-68
2023/07/19 05:14:04;;;;;;;6.50;2.63;;;19.70;99.90;;;;;;5034021;28;20026;-66
2023/07/19 05:16:30;;;;;;;8.18;2.85;;;19.90;99.90;;;;;;5007935;28;20430;-65
2023/07/19 05:18:56;;;;;;;11.13;3.15;;;19.90;99.90;;;;;;5022252;28;20048;-66
2023/07/19 05:21:22;;;;;;;7.32;3.53;;;19.80;99.90;;;;;;5017299;28;20052;-66
2023/07/19 05:23:48;;;;;;;9.38;2.95;;;19.80;99.90;;;;;;5021580;28;20053;-66
2023/07/19 05:26:14;;;;;;;7.32;3.60;;;19.90;99.90;;;;;;5021571;28;20059;-66
2023/07/19 05:28:40;;;;;;;9.35;2.97;;;19.90;99.90;;;;;;5020757;28;20070;-66
2023/07/19 05:31:08;;;;;;;6.80;2.92;;;20.00;99.90;;;;;;5017148;28;20038;-67
2023/07/19 05:33:34;;;;;;;6.78;2.85;;;20.10;99.90;;;;;;5024038;28;20022;-66
2023/07/19 05:36:01;;;;;;;12.15;3.50;;;20.00;99.90;;;;;;5011007;28;20611;-65
2023/07/19 05:38:28;;;;;;;9.95;2.95;;;20.00;99.90;;;;;;5021506;28;20417;-65
2023/07/19 05:41:00;;;;;;;7.70;3.28;;;20.10;99.90;;;;;;5017150;28;20394;-65
2023/07/19 05:43:26;;;;;;;9.45;3.28;;;20.30;99.90;;;;;;5010499;28;20029;-67
2023/07/19 05:45:52;;;;;;;5.88;2.85;;;20.20;99.90;;;;;;5022501;28;20033;-67
2023/07/19 05:48:18;;;;;;;10.95;3.17;;;20.40;99.90;;;;;;5021596;28;20112;-65
2023/07/19 05:50:44;;;;;;;9.25;3.88;;;20.40;99.90;;;;;;5022217;28;20168;-67
2023/07/19 05:53:10;;;;;;;9.55;3.50;;;20.40;99.90;;;;;;5020550;28;20088;-66
2023/07/19 05:55:38;;;;;;;13.40;3.83;;;20.50;99.90;;;;;;5021623;28;20027;-66
2023/07/19 05:58:04;;;;;;;6.97;3.67;;;20.60;99.90;;;;;;5033542;28;20065;-66
2023/07/19 06:00:29;;;;;;;8.50;3.28;;;20.70;99.90;;;;;;5023220;28;20127;-65
2023/07/19 06:02:56;;;;;;;5.55;2.75;;;20.80;99.90;;;;;;5014755;28;20037;-66
2023/07/19 06:05:24;;;;;;;9.60;3.72;;;20.80;99.90;;;;;;5006552;28;20575;-67
2023/07/19 06:07:50;;;;;;;7.65;2.88;;;21.00;99.90;;;;;;5014454;28;20501;-67
2023/07/19 06:10:16;;;;;;;8.82;3.28;;;21.10;99.90;;;;;;5021866;28;20118;-66
2023/07/19 06:12:45;;;;;;;6.38;3.47;;;20.80;99.90;;;;;;5002541;28;20026;-66
2023/07/19 06:15:11;;;;;;;7.80;2.97;;;20.80;99.90;;;;;;5029363;28;20027;-66
2023/07/19 06:17:37;;;;;;;8.80;3.15;;;21.00;99.90;;;;;;5012735;28;20480;-66
2023/07/19 06:20:04;;;;;;;34.72;4.10;;;21.00;99.90;;;;;;5018466;28;20036;-64
2023/07/19 06:22:31;;;;;;;5.45;2.78;;;21.00;99.90;;;;;;5009152;28;20087;-65
2023/07/19 06:25:00;;;;;;;8.18;3.38;;;21.00;99.90;;;;;;5015010;28;20037;-66
2023/07/19 06:27:25;;;;;;;6.60;3.08;;;21.00;99.90;;;;;;5009285;28;20076;-65
2023/07/19 06:29:51;;;;;;;10.73;3.47;;;21.00;99.90;;;;;;5017743;28;20017;-65
2023/07/19 06:32:17;;;;;;;12.52;3.55;;;21.10;99.90;;;;;;5010012;28;20022;-66
2023/07/19 06:34:43;;;;;;;5.03;2.67;;;21.10;99.90;;;;;;5030515;28;20033;-64
2023/07/19 06:37:09;;;;;;;7.50;3.13;;;21.20;99.90;;;;;;5014600;28;20037;-64
2023/07/19 06:39:35;;;;;;;6.47;2.70;;;21.30;99.90;;;;;;5026473;28;20392;-64
2023/07/19 06:42:00;;;;;;;6.35;3.10;;;21.30;99.90;;;;;;5021994;28;20045;-64
2023/07/19 06:44:26;;;;;;;8.65;3.38;;;21.40;99.90;;;;;;5019633;28;20037;-64
2023/07/19 06:46:52;;;;;;;6.30;3.35;;;21.50;99.90;;;;;;5013609;28;20076;-64
2023/07/19 06:49:19;;;;;;;10.88;3.42;;;21.60;99.90;;;;;;5022540;28;20024;-64
2023/07/19 06:51:45;;;;;;;6.82;3.17;;;21.80;99.90;;;;;;5004884;28;20063;-64
2023/07/19 06:54:11;;;;;;;9.23;3.42;;;21.80;99.90;;;;;;5009281;28;20026;-65
2023/07/19 06:56:37;;;;;;;8.23;3.17;;;21.80;99.90;;;;;;5003075;28;20029;-65
2023/07/19 06:59:03;;;;;;;6.85;3.90;;;21.90;99.90;;;;;;5021515;28;20033;-64
2023/07/19 07:01:28;;;;;;;8.93;3.85;;;21.80;99.90;;;;;;5015611;28;20445;-65
2023/07/19 07:03:54;;;;;;;7.97;3.45;;;21.80;99.90;;;;;;5042950;28;20032;-64
2023/07/19 07:06:20;;;;;;;9.43;3.80;;;21.70;99.90;;;;;;5015438;28;20056;-65
2023/07/19 07:08:45;;;;;;;6.15;3.30;;;21.90;99.90;;;;;;5024474;28;20556;-64
2023/07/19 07:11:11;;;;;;;10.90;3.90;;;22.10;99.90;;;;;;5023931;28;20040;-64
2023/07/19 07:13:37;;;;;;;11.52;3.72;;;22.30;99.90;;;;;;5022747;28;20022;-65
2023/07/19 07:16:03;;;;;;;5.50;3.13;;;22.50;99.90;;;;;;5023409;28;20034;-64
2023/07/19 07:18:29;;;;;;;9.05;4.47;;;22.60;99.90;;;;;;5024392;28;20071;-65
2023/07/19 07:20:54;;;;;;;8.27;3.67;;;22.80;99.90;;;;;;5023562;28;20060;-65
2023/07/19 07:23:21;;;;;;;6.50;2.88;;;22.90;99.90;;;;;;5039291;28;20547;-65
2023/07/19 07:25:53;;;;;;;7.47;3.10;;;22.90;99.90;;;;;;5017943;28;20042;-64
2023/07/19 07:28:19;;;;;;;7.78;3.80;;;22.80;99.90;;;;;;5023029;28;20025;-64
2023/07/19 07:30:44;;;;;;;8.55;3.30;;;22.70;99.90;;;;;;5023111;28;20073;-63
2023/07/19 07:33:10;;;;;;;8.40;3.65;;;22.90;99.90;;;;;;5025825;28;20033;-64
2023/07/19 07:35:36;;;;;;;9.95;3.47;;;22.70;99.90;;;;;;5025704;28;20477;-64
2023/07/19 07:38:02;;;;;;;7.25;3.08;;;22.80;99.90;;;;;;5021648;28;20404;-64
2023/07/19 07:40:28;;;;;;;7.72;3.63;;;23.00;99.90;;;;;;5021107;28;20053;-65
2023/07/19 07:42:53;;;;;;;4.47;2.63;;;23.00;99.90;;;;;;5017164;28;20038;-65
2023/07/19 07:45:19;;;;;;;10.93;3.38;;;23.00;99.90;;;;;;5026346;28;20033;-64
2023/07/19 07:47:45;;;;;;;9.05;3.10;;;23.20;99.90;;;;;;5020389;28;20033;-64
2023/07/19 07:50:11;;;;;;;12.00;3.65;;;23.30;99.90;;;;;;5026233;28;20032;-65
2023/07/19 07:52:37;;;;;;;7.30;3.20;;;23.40;99.90;;;;;;5013343;28;20034;-64
2023/07/19 07:55:05;;;;;;;7.88;3.00;;;23.30;99.90;;;;;;5018325;28;20026;-65
2023/07/19 07:57:33;;;;;;;7.57;3.00;;;23.40;99.90;;;;;;5008078;28;20069;-64
2023/07/19 08:00:00;;;;;;;9.50;3.03;;;23.50;99.90;;;;;;5011989;28;20091;-64
2023/07/19 08:02:26;;;;;;;4.25;2.55;;;23.80;99.90;;;;;;5010299;28;20033;-64
2023/07/19 08:04:52;;;;;;;7.35;3.17;;;23.90;99.90;;;;;;5022858;28;20038;-66
2023/07/19 08:07:18;;;;;;;6.82;3.00;;;24.10;99.90;;;;;;5019254;28;20030;-65
2023/07/19 08:09:44;;;;;;;8.27;2.67;;;24.20;99.90;;;;;;5026181;28;20067;-62
2023/07/19 08:12:10;;;;;;;5.93;3.03;;;24.30;99.90;;;;;;5008934;28;20156;-65
2023/07/19 08:14:36;;;;;;;4.18;2.05;;;24.30;99.90;;;;;;5011528;28;20096;-63
2023/07/19 08:17:02;;;;;;;5.53;2.05;;;24.30;99.90;;;;;;5011131;28;20029;-63
2023/07/19 08:19:28;;;;;;;8.25;3.08;;;24.20;99.90;;;;;;5023389;28;20138;-64
2023/07/19 08:22:05;;;;;;;5.97;2.28;;;24.30;99.90;;;;;;5014903;28;20489;-63
2023/07/19 08:24:31;;;;;;;7.95;2.25;;;24.30;99.90;;;;;;5014002;28;20065;-64
2023/07/19 08:26:57;;;;;;;4.18;1.38;;;24.30;99.90;;;;;;5011661;28;20029;-64
2023/07/19 08:29:26;;;;;;;4.93;1.85;;;24.50;99.90;;;;;;5024067;28;20028;-65
2023/07/19 08:31:52;;;;;;;4.93;1.67;;;24.40;99.90;;;;;;5021095;28;20536;-63
2023/07/19 08:34:19;;;;;;;5.45;1.60;;;24.60;99.90;;;;;;5019855;28;20112;-63
2023/07/19 08:36:45;;;;;;;3.10;1.65;;;24.80;99.90;;;;;;5014814;28;20032;-64
2023/07/19 08:39:11;;;;;;;5.78;2.03;;;24.90;99.90;;;;;;5023174;28;20032;-64
2023/07/19 08:41:37;;;;;;;4.72;2.47;;;24.90;99.70;;;;;;5015139;28;20037;-63
2023/07/19 08:44:04;;;;;;;6.93;1.75;;;25.00;97.70;;;;;;5021491;28;20041;-63
2023/07/19 08:46:32;;;;;;;6.30;1.63;;;25.00;98.60;;;;;;5015060;28;20037;-64
2023/07/19 08:48:59;;;;;;;3.70;1.30;;;25.00;97.90;;;;;;5021088;28;20099;-63
2023/07/19 08:51:26;;;;;;;4.85;1.95;;;25.20;97.70;;;;;;5020674;28;20018;-63
2023/07/19 08:53:52;;;;;;;9.65;1.67;;;25.30;96.90;;;;;;5037785;28;20041;-65
2023/07/19 08:56:19;;;;;;;3.97;1.73;;;25.40;96.00;;;;;;5021441;28;20392;-64
2023/07/19 08:58:45;;;;;;;3.47;1.40;;;25.50;94.60;;;;;;5019867;28;20546;-63
2023/07/19 09:01:14;;;;;;;3.88;1.30;;;25.50;94.10;;;;;;5005518;28;20505;-63
2023/07/19 09:03:40;;;;;;;4.90;1.10;;;25.70;94.00;;;;;;5025423;28;20037;-63
2023/07/19 09:06:06;;;;;;;2.80;1.45;;;25.80;91.90;;;;;;5014254;28;20346;-64
2023/07/19 09:08:40;;;;;;;2.90;1.33;;;25.80;91.30;;;;;;5022650;28;20018;-63
2023/07/19 09:11:07;;;;;;;3.47;1.30;;;25.90;90.50;;;;;;5014558;28;20030;-64
2023/07/19 09:13:36;;;;;;;2.05;1.05;;;26.00;90.90;;;;;;5022181;28;20030;-64
2023/07/19 09:16:05;;;;;;;1.90;0.70;;;26.10;90.20;;;;;;5021788;28;20034;-64
2023/07/19 09:18:38;;;;;;;2.80;1.33;;;26.10;87.10;;;;;;5021143;28;20034;-64
2023/07/19 09:21:06;;;;;;;1.58;1.10;;;26.30;86.50;;;;;;5020307;28;20052;-64
2023/07/19 09:23:36;;;;;;;3.20;1.70;;;26.20;87.30;;;;;;5022040;28;20116;-64
2023/07/19 09:26:04;;;;;;;5.33;1.30;;;26.40;88.40;;;;;;5014139;28;20030;-65
2023/07/19 09:28:30;;;;;;;3.95;1.60;;;26.60;90.20;;;;;;5022168;28;20029;-64
2023/07/19 09:31:02;;;;;;;5.32;1.52;;;26.70;89.00;;;;;;5013907;28;20038;-64
2023/07/19 09:33:29;;;;;;;6.60;1.40;;;26.80;88.30;;;;;;5025295;28;20484;-64
2023/07/19 09:35:58;;;;;;;3.85;1.67;;;26.80;79.60;;;;;;5020001;28;20040;-64
2023/07/19 09:38:26;;;;;;;3.58;1.23;;;27.00;84.80;;;;;;5013442;28;20026;-63
2023/07/19 09:40:54;;;;;;;2.05;1.10;;;27.00;82.80;;;;;;5003308;28;20044;-64
2023/07/19 09:43:21;;;;;;;2.42;1.50;;;26.90;83.50;;;;;;5005558;28;20133;-64
2023/07/19 09:45:50;;;;;;;3.75;1.40;;;26.90;83.80;;;;;;5007857;28;20030;-64
2023/07/19 09:48:17;;;;;;;2.40;1.08;;;26.80;83.30;;;;;;5008725;28;20547;-64
2023/07/19 09:50:46;;;;;;;4.15;1.10;;;27.20;83.30;;;;;;5019438;28;20514;-64
2023/07/19 09:53:13;;;;;;;2.47;0.80;;;27.30;79.70;;;;;;5020130;28;20025;-64
2023/07/19 09:55:46;;;;;;;1.55;1.00;;;27.40;78.60;;;;;;5012940;28;20034;-64
2023/07/19 09:58:13;;;;;;;1.60;0.77;;;27.50;79.60;;;;;;5013119;28;20870;-62
2023/07/19 10:00:40;;;;;;;2.38;1.20;;;27.60;77.70;;;;;;5030545;23;20068;-61
2023/07/19 10:03:11;;;;;;;2.70;1.52;;;27.80;76.40;;;;;;5036736;28;20063;-62
2023/07/19 10:05:37;;;;;;;3.42;1.40;;;27.90;75.80;;;;;;5036476;28;20018;-62
2023/07/19 10:08:05;;;;;;;4.32;0.95;;;28.10;75.60;;;;;;5038091;28;20069;-62
2023/07/19 10:10:40;;;;;;;3.72;1.30;;;28.20;73.20;;;;;;5033245;28;20048;-61
2023/07/19 10:13:06;;;;;;;7.40;1.90;;;28.40;72.20;;;;;;5040037;28;20496;-62
2023/07/19 10:15:33;;;;;;;3.33;1.45;;;28.40;71.90;;;;;;5040408;28;20117;-62
2023/07/19 10:18:00;;;;;;;6.22;1.50;;;28.50;73.00;;;;;;5034203;28;20057;-62
2023/07/19 10:20:35;;;;;;;3.53;1.33;;;29.00;71.40;;;;;;5053693;28;20032;-62
2023/07/19 10:23:08;;;;;;;2.83;1.40;;;29.00;70.00;;;;;;5023979;28;20036;-63
2023/07/19 10:25:45;;;;;;;3.95;1.13;;;28.90;70.20;;;;;;5032580;28;20036;-62
2023/07/19 10:28:13;;;;;;;2.75;1.45;;;28.80;70.20;;;;;;5025697;28;20083;-62
2023/07/19 10:30:56;;;;;;;3.45;1.25;;;28.80;70.70;;;;;;5035894;28;20059;-63
2023/07/19 10:33:30;;;;;;;2.10;1.30;;;28.90;71.00;;;;;;5025058;28;20030;-63
2023/07/19 10:36:07;;;;;;;3.80;1.45;;;28.70;71.00;;;;;;5020766;28;20022;-63
2023/07/19 10:38:33;;;;;;;3.80;1.70;;;28.90;70.80;;;;;;5044913;28;20040;-63
2023/07/19 10:41:05;;;;;;;3.72;1.10;;;28.50;71.30;;;;;;5048522;28;20037;-63
2023/07/19 10:43:33;;;;;;;2.38;1.10;;;28.10;72.00;;;;;;5044662;28;20024;-61
2023/07/19 10:46:00;;;;;;;5.07;1.25;;;28.30;71.80;;;;;;5048841;28;20041;-61
2023/07/19 10:48:28;;;;;;;5.38;1.10;;;28.00;72.70;;;;;;5027034;28;20100;-62
2023/07/19 10:51:03;;;;;;;2.80;1.20;;;28.10;73.80;;;;;;5048501;28;20022;-61
2023/07/19 10:53:40;;;;;;;3.03;1.38;;;28.20;73.40;;;;;;5044345;28;20500;-61
2023/07/19 10:56:06;;;;;;;3.10;1.42;;;28.40;73.50;;;;;;5048509;28;20049;-61
2023/07/19 10:58:32;;;;;;;3.38;1.27;;;28.40;72.50;;;;;;5044693;28;20065;-61
2023/07/19 11:00:58;;;;;;;3.42;1.30;;;28.20;72.30;;;;;;5033095;28;20167;-62
2023/07/19 11:03:26;;;;;;;3.88;1.20;;;28.00;73.40;;;;;;5029980;28;20041;-62
2023/07/19 11:05:53;;;;;;;3.20;1.50;;;28.00;72.90;;;;;;5032899;28;20033;-62
2023/07/19 11:08:27;;;;;;;6.18;1.20;;;28.10;73.20;;;;;;5009369;28;20076;-62
2023/07/19 11:10:56;;;;;;;4.78;1.63;;;28.20;72.60;;;;;;5023362;28;20029;-62
2023/07/19 11:13:25;;;;;;;2.25;1.17;;;28.30;71.10;;;;;;5018567;28;20024;-62
2023/07/19 11:15:55;;;;;;;2.45;1.10;;;28.40;71.00;;;;;;5022532;28;20025;-62
2023/07/19 11:18:45;;;;;;;4.75;1.40;;;28.90;70.00;;;;;;5028264;28;20064;-62
2023/07/19 11:21:11;;;;;;;2.83;1.20;;;29.10;69.90;;;;;;5030027;28;20509;-62
2023/07/19 11:23:41;;;;;;;3.47;1.13;;;29.60;69.40;;;;;;5034946;28;20120;-62
2023/07/19 11:26:09;;;;;;;2.97;1.40;;;29.80;67.50;;;;;;5034374;28;20489;-62
2023/07/19 11:28:49;;;;;;;2.15;1.10;;;30.10;67.80;;;;;;5021560;28;20069;-62
2023/07/19 11:31:34;;;;;;;4.53;1.50;;;29.90;67.70;;;;;;5035042;28;20037;-61
2023/07/19 11:34:07;;;;;;;2.83;1.00;;;29.80;66.90;;;;;;5025293;28;20037;-62
2023/07/19 11:36:38;;;;;;;2.50;1.25;;;29.70;66.70;;;;;;5046018;28;20488;-62
2023/07/19 11:39:04;;;;;;;2.88;1.52;;;29.60;66.80;;;;;;5041934;28;20037;-62
2023/07/19 11:41:32;;;;;;;2.42;1.10;;;29.40;67.00;;;;;;5018135;28;20028;-61
2023/07/19 11:43:58;;;;;;;5.57;1.00;;;29.50;67.60;;;;;;5014084;28;20029;-60
2023/07/19 11:46:23;;;;;;;3.03;1.08;;;29.80;67.70;;;;;;5044723;28;20032;-62
2023/07/19 11:48:50;;;;;;;3.10;1.08;;;29.30;67.70;;;;;;5043215;28;20111;-61
2023/07/19 11:51:15;;;;;;;2.08;0.93;;;29.40;68.40;;;;;;5043632;28;20059;-62
2023/07/19 11:53:41;;;;;;;1.92;1.15;;;29.10;69.60;;;;;;5019359;28;20496;-62
2023/07/19 11:56:07;;;;;;;2.40;1.00;;;29.10;68.50;;;;;;5043299;28;20443;-62
2023/07/19 11:58:33;;;;;;;2.38;0.80;;;29.10;69.40;;;;;;5043486;28;20047;-62
2023/07/19 12:01:01;;;;;;;1.60;0.90;;;29.10;69.50;;;;;;5043489;28;20095;-60
2023/07/19 12:03:27;;;;;;;3.72;1.10;;;28.80;70.10;;;;;;5025956;28;20078;-61
2023/07/19 12:05:53;;;;;;;2.25;0.88;;;28.60;70.90;;;;;;5025502;28;20032;-61
2023/07/19 12:08:18;;;;;;;2.13;0.80;;;28.40;71.40;;;;;;5042863;28;20055;-61
2023/07/19 12:10:44;;;;;;;5.10;0.98;;;28.30;72.10;;;;;;5043209;28;20055;-61
2023/07/19 12:13:10;;;;;;;3.72;1.00;;;28.40;72.80;;;;;;5024659;28;20584;-65
2023/07/19 12:15:36;;;;;;;3.55;1.63;;;28.00;81.70;;;;;;5039308;28;20108;-64
2023/07/19 12:18:01;;;;;;;2.83;1.30;;;27.70;87.10;;;;;;5031396;28;20089;-63
2023/07/19 12:20:27;;;;;;;2.60;1.20;;;27.20;88.00;;;;;;5043221;28;20060;-60
2023/07/19 12:22:53;;;;;;;3.97;1.40;;;26.80;91.30;;;;;;5042572;28;20038;-61
2023/07/19 12:25:19;;;;;;;3.30;1.70;;;26.80;92.60;;;;;;5034323;28;20033;-66
2023/07/19 12:27:52;;;;;;;2.42;1.30;;;27.00;93.50;;;;;;5038463;28;20120;-62
2023/07/19 12:30:18;;;;;;;3.90;1.25;;;27.20;92.70;;;;;;5030638;28;20033;-62
2023/07/19 12:32:43;;;;;;;2.17;1.30;;;27.20;90.20;;;;;;5020002;28;20078;-54
2023/07/19 12:35:10;;;;;;;6.22;1.60;;;27.30;88.10;;;;;;5038679;28;20044;-55
2023/07/19 12:37:35;;;;;;;5.88;1.17;;;27.60;89.70;;;;;;5012195;28;20086;-61
2023/07/19 12:40:05;;;;;;;8.07;0.88;;;28.00;85.70;;;;;;5022018;28;20692;-52
2023/07/19 12:42:31;;;;;;;2.10;0.60;;;28.30;83.00;;;;;;5044772;28;20033;-61
2023/07/19 12:44:56;;;;;;;2.17;0.90;;;28.10;83.70;;;;;;5039054;28;20393;-59
2023/07/19 12:47:22;;;;;;;2.00;0.88;;;28.30;84.10;;;;;;5046355;28;20021;-62
2023/07/19 12:49:48;;;;;;;1.17;0.57;;;28.60;81.00;;;;;;5021252;28;20043;-68